sensor_id;sensor_type;location;lat;lon;timestamp;pressure;altitude;pressure_sealevel;temperature;humidity
14242;BME280;7205;50.864;12.766;2022-09-02T00:01:27;98049.19;;;12.17;88.91
14242;BME280;7205;50.864;12.766;2022-09-02T00:03:56;98037.94;;;12.15;88.83
14242;BME280;7205;50.864;12.766;2022-09-02T00:06:23;98043.06;;;12.16;89.33
14242;BME280;7205;50.864;12.766;2022-09-02T00:08:52;98040.75;;;12.13;88.70
14242;BME280;7205;50.864;12.766;2022-09-02T00:11:22;98041.91;;;12.11;88.80
14242;BME280;7205;50.864;12.766;2022-09-02T00:13:50;98051.72;;;12.10;89.24
14242;BME280;7205;50.864;12.766;2022-09-02T00:16:17;98050.03;;;12.09;89.12
14242;BME280;7205;50.864;12.766;2022-09-02T00:18:45;98049.25;;;12.09;89.21
14242;BME280;7205;50.864;12.766;2022-09-02T00:21:14;98045.75;;;12.08;89.27
14242;BME280;7205;50.864;12.766;2022-09-02T00:23:42;98054.69;;;12.07;89.03
14242;BME280;7205;50.864;12.766;2022-09-02T00:26:12;98054.69;;;12.07;89.29
14242;BME280;7205;50.864;12.766;2022-09-02T00:28:39;98050.41;;;12.06;89.23
14242;BME280;7205;50.864;12.766;2022-09-02T00:31:06;98050.56;;;12.05;89.46
14242;BME280;7205;50.864;12.766;2022-09-02T00:33:35;98045.47;;;12.03;90.05
14242;BME280;7205;50.864;12.766;2022-09-02T00:36:03;98047.28;;;12.03;89.72
14242;BME280;7205;50.864;12.766;2022-09-02T00:38:31;98035.84;;;12.02;89.88
14242;BME280;7205;50.864;12.766;2022-09-02T00:41:00;98042.16;;;12.01;90.25
14242;BME280;7205;50.864;12.766;2022-09-02T00:43:43;98040.50;;;12.00;90.33
14242;BME280;7205;50.864;12.766;2022-09-02T00:46:11;98043.16;;;12.00;90.59
14242;BME280;7205;50.864;12.766;2022-09-02T00:48:42;98030.09;;;11.99;90.72
14242;BME280;7205;50.864;12.766;2022-09-02T00:51:13;98032.56;;;12.00;90.56
14242;BME280;7205;50.864;12.766;2022-09-02T00:53:42;98030.09;;;11.99;90.80
14242;BME280;7205;50.864;12.766;2022-09-02T00:56:13;98034.56;;;11.98;90.61
14242;BME280;7205;50.864;12.766;2022-09-02T00:58:44;98035.41;;;11.99;90.88
14242;BME280;7205;50.864;12.766;2022-09-02T01:01:11;98028.44;;;11.98;90.81
14242;BME280;7205;50.864;12.766;2022-09-02T01:03:39;98031.25;;;11.96;91.04
14242;BME280;7205;50.864;12.766;2022-09-02T01:06:07;98029.63;;;11.95;91.14
14242;BME280;7205;50.864;12.766;2022-09-02T01:08:35;98032.44;;;11.94;91.22
14242;BME280;7205;50.864;12.766;2022-09-02T01:11:04;98023.84;;;11.92;91.36
14242;BME280;7205;50.864;12.766;2022-09-02T01:13:37;98024.84;;;11.91;91.21
14242;BME280;7205;50.864;12.766;2022-09-02T01:16:11;98025.19;;;11.88;91.73
14242;BME280;7205;50.864;12.766;2022-09-02T01:18:39;98025.38;;;11.86;91.62
14242;BME280;7205;50.864;12.766;2022-09-02T01:21:06;98022.91;;;11.85;91.97
14242;BME280;7205;50.864;12.766;2022-09-02T01:23:34;98021.25;;;11.84;91.99
14242;BME280;7205;50.864;12.766;2022-09-02T01:26:04;98026.56;;;11.84;92.14
14242;BME280;7205;50.864;12.766;2022-09-02T01:28:31;98018.94;;;11.81;92.44
14242;BME280;7205;50.864;12.766;2022-09-02T01:30:59;98020.78;;;11.80;92.75
14242;BME280;7205;50.864;12.766;2022-09-02T01:33:26;98016.47;;;11.79;92.46
14242;BME280;7205;50.864;12.766;2022-09-02T01:35:54;98007.88;;;11.77;92.83
14242;BME280;7205;50.864;12.766;2022-09-02T01:38:22;98011.53;;;11.76;92.66
14242;BME280;7205;50.864;12.766;2022-09-02T01:40:51;98017.00;;;11.75;92.60
14242;BME280;7205;50.864;12.766;2022-09-02T01:43:20;98019.81;;;11.73;92.82
14242;BME280;7205;50.864;12.766;2022-09-02T01:45:50;98011.22;;;11.71;92.56
14242;BME280;7205;50.864;12.766;2022-09-02T01:48:19;98014.03;;;11.70;92.82
14242;BME280;7205;50.864;12.766;2022-09-02T01:50:53;98012.56;;;11.67;92.88
14242;BME280;7205;50.864;12.766;2022-09-02T01:53:20;98014.41;;;11.67;93.50
14242;BME280;7205;50.864;12.766;2022-09-02T01:55:48;98007.44;;;11.66;93.71
14242;BME280;7205;50.864;12.766;2022-09-02T01:58:17;98009.28;;;11.65;93.59
14242;BME280;7205;50.864;12.766;2022-09-02T02:00:44;98009.28;;;11.65;93.46
14242;BME280;7205;50.864;12.766;2022-09-02T02:03:11;98000.50;;;11.65;93.71
14242;BME280;7205;50.864;12.766;2022-09-02T02:05:39;98004.78;;;11.66;93.41
14242;BME280;7205;50.864;12.766;2022-09-02T02:08:06;98001.34;;;11.65;93.49
14242;BME280;7205;50.864;12.766;2022-09-02T02:10:33;98003.31;;;11.63;93.39
14242;BME280;7205;50.864;12.766;2022-09-02T02:13:01;98005.94;;;11.63;94.04
14242;BME280;7205;50.864;12.766;2022-09-02T02:15:36;98001.81;;;11.61;93.73
14242;BME280;7205;50.864;12.766;2022-09-02T02:18:04;98000.16;;;11.60;93.69
14242;BME280;7205;50.864;12.766;2022-09-02T02:20:31;98001.97;;;11.59;93.67
14242;BME280;7205;50.864;12.766;2022-09-02T02:22:58;98003.16;;;11.57;93.96
14242;BME280;7205;50.864;12.766;2022-09-02T02:25:25;97997.03;;;11.56;94.15
14242;BME280;7205;50.864;12.766;2022-09-02T02:27:53;97999.22;;;11.53;94.33
14242;BME280;7205;50.864;12.766;2022-09-02T02:30:21;97995.72;;;11.52;93.97
14242;BME280;7205;50.864;12.766;2022-09-02T02:32:50;97989.81;;;11.50;94.10
14242;BME280;7205;50.864;12.766;2022-09-02T02:35:19;98000.56;;;11.49;94.04
14242;BME280;7205;50.864;12.766;2022-09-02T02:37:47;97992.78;;;11.47;93.99
14242;BME280;7205;50.864;12.766;2022-09-02T02:40:16;97991.97;;;11.47;94.49
14242;BME280;7205;50.864;12.766;2022-09-02T02:42:46;97990.31;;;11.46;94.91
14242;BME280;7205;50.864;12.766;2022-09-02T02:45:13;97988.66;;;11.45;94.30
14242;BME280;7205;50.864;12.766;2022-09-02T02:47:41;97985.38;;;11.43;94.67
14242;BME280;7205;50.864;12.766;2022-09-02T02:50:14;97984.53;;;11.42;95.15
14242;BME280;7205;50.864;12.766;2022-09-02T02:52:42;97981.09;;;11.42;94.99
14242;BME280;7205;50.864;12.766;2022-09-02T02:55:10;97980.25;;;11.41;94.90
14242;BME280;7205;50.864;12.766;2022-09-02T02:57:39;97987.34;;;11.40;95.17
14242;BME280;7205;50.864;12.766;2022-09-02T03:00:09;97982.25;;;11.39;94.96
14242;BME280;7205;50.864;12.766;2022-09-02T03:02:38;97984.09;;;11.38;95.59
14242;BME280;7205;50.864;12.766;2022-09-02T03:05:08;97986.72;;;11.38;95.39
14242;BME280;7205;50.864;12.766;2022-09-02T03:07:37;97979.78;;;11.37;95.50
14242;BME280;7205;50.864;12.766;2022-09-02T03:10:05;97987.69;;;11.37;95.21
14242;BME280;7205;50.864;12.766;2022-09-02T03:12:33;97982.41;;;11.37;95.61
14242;BME280;7205;50.864;12.766;2022-09-02T03:15:00;97980.94;;;11.35;95.49
14242;BME280;7205;50.864;12.766;2022-09-02T03:17:28;97980.13;;;11.34;96.09
14242;BME280;7205;50.864;12.766;2022-09-02T03:19:55;97976.66;;;11.34;95.53
14242;BME280;7205;50.864;12.766;2022-09-02T03:22:24;97980.28;;;11.33;95.84
14242;BME280;7205;50.864;12.766;2022-09-02T03:24:53;97975.97;;;11.32;96.30
14242;BME280;7205;50.864;12.766;2022-09-02T03:27:20;97976.16;;;11.30;96.05
14242;BME280;7205;50.864;12.766;2022-09-02T03:29:47;97977.16;;;11.29;96.11
14242;BME280;7205;50.864;12.766;2022-09-02T03:32:15;97978.16;;;11.28;96.36
14242;BME280;7205;50.864;12.766;2022-09-02T03:34:44;97969.41;;;11.28;96.02
14242;BME280;7205;50.864;12.766;2022-09-02T03:37:11;97976.69;;;11.26;96.09
14242;BME280;7205;50.864;12.766;2022-09-02T03:39:38;97971.41;;;11.26;96.29
14242;BME280;7205;50.864;12.766;2022-09-02T03:42:07;97981.97;;;11.26;96.71
14242;BME280;7205;50.864;12.766;2022-09-02T03:44:34;97974.22;;;11.24;96.50
14242;BME280;7205;50.864;12.766;2022-09-02T03:47:01;97976.84;;;11.24;97.10
14242;BME280;7205;50.864;12.766;2022-09-02T03:49:30;97972.72;;;11.22;96.81
14242;BME280;7205;50.864;12.766;2022-09-02T03:51:59;97968.25;;;11.22;96.50
14242;BME280;7205;50.864;12.766;2022-09-02T03:54:25;97980.66;;;11.22;96.61
14242;BME280;7205;50.864;12.766;2022-09-02T03:56:52;97965.97;;;11.19;97.10
14242;BME280;7205;50.864;12.766;2022-09-02T03:59:21;97975.72;;;11.19;96.61
14242;BME280;7205;50.864;12.766;2022-09-02T04:01:48;97973.25;;;11.17;96.83
14242;BME280;7205;50.864;12.766;2022-09-02T04:04:15;97975.06;;;11.17;97.19
14242;BME280;7205;50.864;12.766;2022-09-02T04:06:42;97975.88;;;11.17;97.19
14242;BME280;7205;50.864;12.766;2022-09-02T04:09:09;97972.59;;;11.15;96.79
14242;BME280;7205;50.864;12.766;2022-09-02T04:11:38;97973.59;;;11.14;96.82
14242;BME280;7205;50.864;12.766;2022-09-02T04:14:08;97975.22;;;11.15;97.52
14242;BME280;7205;50.864;12.766;2022-09-02T04:16:37;97983.16;;;11.15;97.35
14242;BME280;7205;50.864;12.766;2022-09-02T04:19:06;97979.72;;;11.15;97.03
14242;BME280;7205;50.864;12.766;2022-09-02T04:21:35;97974.25;;;11.16;97.20
14242;BME280;7205;50.864;12.766;2022-09-02T04:24:03;97976.72;;;11.18;97.21
14242;BME280;7205;50.864;12.766;2022-09-02T04:26:32;97978.53;;;11.17;97.74
14242;BME280;7205;50.864;12.766;2022-09-02T04:28:59;97985.47;;;11.18;97.15
14242;BME280;7205;50.864;12.766;2022-09-02T04:31:27;97984.28;;;11.21;97.59
14242;BME280;7205;50.864;12.766;2022-09-02T04:33:58;97979.84;;;11.21;97.08
14242;BME280;7205;50.864;12.766;2022-09-02T04:36:27;97983.16;;;11.23;97.57
14242;BME280;7205;50.864;12.766;2022-09-02T04:38:56;97980.34;;;11.25;97.25
14242;BME280;7205;50.864;12.766;2022-09-02T04:41:29;97984.63;;;11.26;97.06
14242;BME280;7205;50.864;12.766;2022-09-02T04:44:01;97990.56;;;11.28;97.68
14242;BME280;7205;50.864;12.766;2022-09-02T04:46:31;97989.38;;;11.30;97.49
14242;BME280;7205;50.864;12.766;2022-09-02T04:48:59;97989.06;;;11.33;97.62
14242;BME280;7205;50.864;12.766;2022-09-02T04:51:27;97993.16;;;11.36;97.41
14242;BME280;7205;50.864;12.766;2022-09-02T04:53:57;97992.00;;;11.38;97.72
14242;BME280;7205;50.864;12.766;2022-09-02T04:56:27;97991.50;;;11.43;97.91
14242;BME280;7205;50.864;12.766;2022-09-02T04:58:56;97993.78;;;11.46;97.14
14242;BME280;7205;50.864;12.766;2022-09-02T05:01:25;97984.53;;;11.50;96.98
14242;BME280;7205;50.864;12.766;2022-09-02T05:03:54;97983.16;;;11.54;97.64
14242;BME280;7205;50.864;12.766;2022-09-02T05:06:29;97987.13;;;11.58;97.34
14242;BME280;7205;50.864;12.766;2022-09-02T05:08:58;97985.75;;;11.62;97.42
14242;BME280;7205;50.864;12.766;2022-09-02T05:11:30;97992.22;;;11.68;97.18
14242;BME280;7205;50.864;12.766;2022-09-02T05:14:00;97994.34;;;11.72;97.06
14242;BME280;7205;50.864;12.766;2022-09-02T05:16:30;97994.63;;;11.77;97.13
14242;BME280;7205;50.864;12.766;2022-09-02T05:18:59;97995.78;;;11.83;97.13
14242;BME280;7205;50.864;12.766;2022-09-02T05:21:39;97992.47;;;11.89;96.87
14242;BME280;7205;50.864;12.766;2022-09-02T05:24:09;97990.91;;;11.94;96.72
14242;BME280;7205;50.864;12.766;2022-09-02T05:26:37;97995.53;;;12.00;96.68
14242;BME280;7205;50.864;12.766;2022-09-02T05:29:05;97989.69;;;12.05;96.28
14242;BME280;7205;50.864;12.766;2022-09-02T05:31:33;97988.19;;;12.10;96.09
14242;BME280;7205;50.864;12.766;2022-09-02T05:34:01;97982.16;;;12.16;95.83
14242;BME280;7205;50.864;12.766;2022-09-02T05:36:28;97983.13;;;12.23;95.86
14242;BME280;7205;50.864;12.766;2022-09-02T05:38:58;97983.22;;;12.30;95.52
14242;BME280;7205;50.864;12.766;2022-09-02T05:41:26;97984.16;;;12.37;95.59
14242;BME280;7205;50.864;12.766;2022-09-02T05:43:59;97983.25;;;12.44;95.19
14242;BME280;7205;50.864;12.766;2022-09-02T05:46:27;97985.41;;;12.49;95.28
14242;BME280;7205;50.864;12.766;2022-09-02T05:49:08;97985.50;;;12.55;95.32
14242;BME280;7205;50.864;12.766;2022-09-02T05:51:56;97977.66;;;12.62;95.26
14242;BME280;7205;50.864;12.766;2022-09-02T05:54:45;97980.59;;;12.67;94.73
14242;BME280;7205;50.864;12.766;2022-09-02T05:57:17;97977.88;;;12.75;94.72
14242;BME280;7205;50.864;12.766;2022-09-02T05:59:52;97972.84;;;12.80;94.57
14242;BME280;7205;50.864;12.766;2022-09-02T06:02:23;97978.06;;;12.88;94.40
14242;BME280;7205;50.864;12.766;2022-09-02T06:04:52;97974.50;;;12.96;94.19
14242;BME280;7205;50.864;12.766;2022-09-02T06:07:21;97982.41;;;13.04;94.00
14242;BME280;7205;50.864;12.766;2022-09-02T06:09:52;97971.91;;;13.10;93.92
14242;BME280;7205;50.864;12.766;2022-09-02T06:12:23;97969.78;;;13.20;93.64
14242;BME280;7205;50.864;12.766;2022-09-02T06:14:51;97971.53;;;13.28;93.41
14242;BME280;7205;50.864;12.766;2022-09-02T06:17:20;97977.53;;;13.36;93.39
14242;BME280;7205;50.864;12.766;2022-09-02T06:19:49;97977.47;;;13.44;93.10
14242;BME280;7205;50.864;12.766;2022-09-02T06:22:16;97976.34;;;13.53;92.78
14242;BME280;7205;50.864;12.766;2022-09-02T06:24:45;97974.59;;;13.60;92.16
14242;BME280;7205;50.864;12.766;2022-09-02T06:27:19;97984.13;;;13.69;91.21
14242;BME280;7205;50.864;12.766;2022-09-02T06:29:51;97976.69;;;13.79;91.29
14242;BME280;7205;50.864;12.766;2022-09-02T06:32:22;97968.97;;;13.84;90.06
14242;BME280;7205;50.864;12.766;2022-09-02T06:34:54;97977.28;;;13.96;89.73
14242;BME280;7205;50.864;12.766;2022-09-02T06:37:22;97980.63;;;14.05;88.90
14242;BME280;7205;50.864;12.766;2022-09-02T06:39:49;97982.97;;;14.14;88.14
14242;BME280;7205;50.864;12.766;2022-09-02T06:42:22;97979.53;;;14.20;87.92
14242;BME280;7205;50.864;12.766;2022-09-02T06:45:08;97978.44;;;14.29;87.07
14242;BME280;7205;50.864;12.766;2022-09-02T06:47:36;97974.22;;;14.35;86.71
14242;BME280;7205;50.864;12.766;2022-09-02T06:50:03;97975.06;;;14.42;85.98
14242;BME280;7205;50.864;12.766;2022-09-02T06:52:34;97979.47;;;14.49;85.27
14242;BME280;7205;50.864;12.766;2022-09-02T06:55:02;97982.81;;;14.58;84.65
14242;BME280;7205;50.864;12.766;2022-09-02T06:57:32;97984.69;;;14.64;84.34
14242;BME280;7205;50.864;12.766;2022-09-02T07:00:00;97983.53;;;14.73;84.09
14242;BME280;7205;50.864;12.766;2022-09-02T07:02:30;97985.84;;;14.82;83.56
14242;BME280;7205;50.864;12.766;2022-09-02T07:04:58;97983.03;;;14.90;82.92
14242;BME280;7205;50.864;12.766;2022-09-02T07:07:42;97983.91;;;14.97;82.67
14242;BME280;7205;50.864;12.766;2022-09-02T07:10:13;97980.31;;;15.05;81.83
14242;BME280;7205;50.864;12.766;2022-09-02T07:12:46;97981.13;;;15.12;81.46
14242;BME280;7205;50.864;12.766;2022-09-02T07:15:15;97988.78;;;15.22;80.21
14242;BME280;7205;50.864;12.766;2022-09-02T07:17:42;97987.00;;;15.29;79.86
14242;BME280;7205;50.864;12.766;2022-09-02T07:20:20;97977.81;;;15.38;79.18
14242;BME280;7205;50.864;12.766;2022-09-02T07:22:52;97980.34;;;15.46;78.69
14242;BME280;7205;50.864;12.766;2022-09-02T07:25:21;97981.00;;;15.54;77.95
14242;BME280;7205;50.864;12.766;2022-09-02T07:27:50;97969.38;;;15.62;77.15
14242;BME280;7205;50.864;12.766;2022-09-02T07:30:18;97977.19;;;15.70;76.54
14242;BME280;7205;50.864;12.766;2022-09-02T07:32:48;97975.19;;;15.78;76.44
14242;BME280;7205;50.864;12.766;2022-09-02T07:35:17;97973.38;;;15.85;75.81
14242;BME280;7205;50.864;12.766;2022-09-02T07:37:44;97973.19;;;15.93;75.26
14242;BME280;7205;50.864;12.766;2022-09-02T07:40:11;97972.16;;;16.01;74.37
14242;BME280;7205;50.864;12.766;2022-09-02T07:42:40;97976.50;;;16.08;73.95
14242;BME280;7205;50.864;12.766;2022-09-02T07:45:10;97972.81;;;16.16;73.74
14242;BME280;7205;50.864;12.766;2022-09-02T07:47:39;97972.84;;;16.22;73.13
14242;BME280;7205;50.864;12.766;2022-09-02T07:50:08;97976.31;;;16.29;72.23
14242;BME280;7205;50.864;12.766;2022-09-02T07:52:38;97972.03;;;16.35;71.18
14242;BME280;7205;50.864;12.766;2022-09-02T07:55:06;97971.03;;;16.43;70.25
14242;BME280;7205;50.864;12.766;2022-09-02T07:57:33;97972.28;;;16.47;69.81
14242;BME280;7205;50.864;12.766;2022-09-02T08:00:01;97970.44;;;16.54;69.49
14242;BME280;7205;50.864;12.766;2022-09-02T08:02:41;97970.66;;;16.59;69.29
14242;BME280;7205;50.864;12.766;2022-09-02T08:05:16;97964.09;;;16.68;68.67
14242;BME280;7205;50.864;12.766;2022-09-02T08:07:43;97968.41;;;16.75;68.90
14242;BME280;7205;50.864;12.766;2022-09-02T08:10:11;97968.38;;;16.82;68.37
14242;BME280;7205;50.864;12.766;2022-09-02T08:12:40;97981.50;;;16.90;67.08
14242;BME280;7205;50.864;12.766;2022-09-02T08:15:08;97976.38;;;16.95;66.68
14242;BME280;7205;50.864;12.766;2022-09-02T08:17:36;97978.84;;;17.03;66.11
14242;BME280;7205;50.864;12.766;2022-09-02T08:20:07;97977.19;;;17.08;65.31
14242;BME280;7205;50.864;12.766;2022-09-02T08:22:34;97983.53;;;17.14;64.64
14242;BME280;7205;50.864;12.766;2022-09-02T08:25:01;97980.03;;;17.20;63.83
14242;BME280;7205;50.864;12.766;2022-09-02T08:27:28;97981.06;;;17.25;63.21
14242;BME280;7205;50.864;12.766;2022-09-02T08:29:56;97986.38;;;17.32;62.65
14242;BME280;7205;50.864;12.766;2022-09-02T08:32:25;97983.06;;;17.36;62.75
14242;BME280;7205;50.864;12.766;2022-09-02T08:34:52;97975.47;;;17.40;62.56
14242;BME280;7205;50.864;12.766;2022-09-02T08:37:21;97974.84;;;17.44;61.63
14242;BME280;7205;50.864;12.766;2022-09-02T08:39:48;97974.25;;;17.49;61.18
14242;BME280;7205;50.864;12.766;2022-09-02T08:42:20;97970.13;;;17.53;60.27
14242;BME280;7205;50.864;12.766;2022-09-02T08:44:49;97974.00;;;17.57;59.48
14242;BME280;7205;50.864;12.766;2022-09-02T08:47:22;97972.56;;;17.61;59.33
14242;BME280;7205;50.864;12.766;2022-09-02T08:49:53;97971.72;;;17.67;59.05
14242;BME280;7205;50.864;12.766;2022-09-02T08:52:27;97968.59;;;17.70;59.68
14242;BME280;7205;50.864;12.766;2022-09-02T08:54:56;97973.13;;;17.76;59.87
14242;BME280;7205;50.864;12.766;2022-09-02T08:57:24;97967.75;;;17.83;59.70
14242;BME280;7205;50.864;12.766;2022-09-02T08:59:52;97973.28;;;17.88;59.09
14242;BME280;7205;50.864;12.766;2022-09-02T09:02:26;97981.69;;;17.91;58.96
14242;BME280;7205;50.864;12.766;2022-09-02T09:05:06;97967.47;;;17.97;57.71
14242;BME280;7205;50.864;12.766;2022-09-02T09:07:44;97959.59;;;18.09;57.41
14242;BME280;7205;50.864;12.766;2022-09-02T09:10:20;97962.56;;;18.25;57.17
14242;BME280;7205;50.864;12.766;2022-09-02T09:13:03;97955.47;;;18.44;57.30
14242;BME280;7205;50.864;12.766;2022-09-02T09:15:39;97963.16;;;18.65;56.26
14242;BME280;7205;50.864;12.766;2022-09-02T09:18:10;97965.28;;;18.81;55.70
14242;BME280;7205;50.864;12.766;2022-09-02T09:20:41;97969.47;;;18.95;55.04
14242;BME280;7205;50.864;12.766;2022-09-02T09:23:18;97965.09;;;19.01;54.73
14242;BME280;7205;50.864;12.766;2022-09-02T09:25:48;97965.19;;;19.12;54.50
14242;BME280;7205;50.864;12.766;2022-09-02T09:28:17;97961.41;;;19.20;54.20
14242;BME280;7205;50.864;12.766;2022-09-02T09:30:44;97964.22;;;19.25;53.17
14242;BME280;7205;50.864;12.766;2022-09-02T09:33:14;97955.97;;;19.26;52.43
14242;BME280;7205;50.864;12.766;2022-09-02T09:35:47;97949.00;;;19.25;52.39
14242;BME280;7205;50.864;12.766;2022-09-02T09:38:27;97955.16;;;19.26;52.40
14242;BME280;7205;50.864;12.766;2022-09-02T09:41:09;97956.16;;;19.31;52.13
14242;BME280;7205;50.864;12.766;2022-09-02T09:43:38;97952.31;;;19.45;52.33
14242;BME280;7205;50.864;12.766;2022-09-02T09:46:23;97948.88;;;19.56;51.74
14242;BME280;7205;50.864;12.766;2022-09-02T09:48:51;97947.59;;;19.77;52.62
14242;BME280;7205;50.864;12.766;2022-09-02T09:51:18;97934.84;;;19.90;51.39
14242;BME280;7205;50.864;12.766;2022-09-02T09:53:47;97941.63;;;20.05;50.64
14242;BME280;7205;50.864;12.766;2022-09-02T09:56:26;97937.47;;;20.09;49.94
14242;BME280;7205;50.864;12.766;2022-09-02T09:58:55;97942.91;;;20.20;49.80
14242;BME280;7205;50.864;12.766;2022-09-02T10:01:23;97942.09;;;20.31;48.88
14242;BME280;7205;50.864;12.766;2022-09-02T10:03:54;97935.50;;;20.45;48.80
14242;BME280;7205;50.864;12.766;2022-09-02T10:06:23;97936.84;;;20.66;48.58
14242;BME280;7205;50.864;12.766;2022-09-02T10:08:54;97930.09;;;20.86;47.81
14242;BME280;7205;50.864;12.766;2022-09-02T10:11:25;97928.22;;;21.10;47.13
14242;BME280;7205;50.864;12.766;2022-09-02T10:13:57;97919.09;;;21.34;46.61
14242;BME280;7205;50.864;12.766;2022-09-02T10:16:37;97927.81;;;21.53;45.60
14242;BME280;7205;50.864;12.766;2022-09-02T10:19:11;97921.25;;;21.72;44.13
14242;BME280;7205;50.864;12.766;2022-09-02T10:21:53;97918.97;;;21.92;43.76
14242;BME280;7205;50.864;12.766;2022-09-02T10:24:39;97919.25;;;22.07;43.04
14242;BME280;7205;50.864;12.766;2022-09-02T10:27:14;97921.56;;;22.15;41.25
14242;BME280;7205;50.864;12.766;2022-09-02T10:29:53;97915.00;;;22.11;40.68
14242;BME280;7205;50.864;12.766;2022-09-02T10:32:35;97917.63;;;22.06;40.37
14242;BME280;7205;50.864;12.766;2022-09-02T10:35:10;97913.06;;;22.06;41.21
14242;BME280;7205;50.864;12.766;2022-09-02T10:37:51;97912.66;;;22.14;41.63
14242;BME280;7205;50.864;12.766;2022-09-02T10:40:28;97917.16;;;22.25;41.58
14242;BME280;7205;50.864;12.766;2022-09-02T10:43:04;97914.19;;;22.38;41.05
14242;BME280;7205;50.864;12.766;2022-09-02T10:45:35;97912.19;;;22.51;40.68
14242;BME280;7205;50.864;12.766;2022-09-02T10:48:18;97910.78;;;22.60;39.61
14242;BME280;7205;50.864;12.766;2022-09-02T10:50:52;97900.41;;;22.68;39.94
14242;BME280;7205;50.864;12.766;2022-09-02T10:53:42;97904.47;;;22.71;39.32
14242;BME280;7205;50.864;12.766;2022-09-02T10:56:17;97897.81;;;22.73;39.45
14242;BME280;7205;50.864;12.766;2022-09-02T10:58:50;97899.75;;;22.78;39.35
14242;BME280;7205;50.864;12.766;2022-09-02T11:01:24;97907.13;;;22.82;39.23
14242;BME280;7205;50.864;12.766;2022-09-02T11:04:00;97897.13;;;22.83;38.66
14242;BME280;7205;50.864;12.766;2022-09-02T11:06:30;97898.22;;;22.82;38.09
14242;BME280;7205;50.864;12.766;2022-09-02T11:09:06;97905.97;;;22.78;38.27
14242;BME280;7205;50.864;12.766;2022-09-02T11:11:39;97902.94;;;22.75;37.95
14242;BME280;7205;50.864;12.766;2022-09-02T11:14:16;97901.50;;;22.67;37.28
14242;BME280;7205;50.864;12.766;2022-09-02T11:16:50;97895.44;;;22.60;37.30
14242;BME280;7205;50.864;12.766;2022-09-02T11:19:21;97901.56;;;22.56;38.09
14242;BME280;7205;50.864;12.766;2022-09-02T11:21:56;97900.19;;;22.53;37.57
14242;BME280;7205;50.864;12.766;2022-09-02T11:24:30;97895.25;;;22.50;38.10
14242;BME280;7205;50.864;12.766;2022-09-02T11:27:04;97896.28;;;22.49;38.18
14242;BME280;7205;50.864;12.766;2022-09-02T11:29:39;97898.31;;;22.54;37.83
14242;BME280;7205;50.864;12.766;2022-09-02T11:32:16;97891.44;;;22.63;37.85
14242;BME280;7205;50.864;12.766;2022-09-02T11:34:46;97889.72;;;22.73;37.32
14242;BME280;7205;50.864;12.766;2022-09-02T11:37:27;97883.34;;;22.79;36.86
14242;BME280;7205;50.864;12.766;2022-09-02T11:39:58;97885.66;;;22.87;36.61
14242;BME280;7205;50.864;12.766;2022-09-02T11:42:54;97883.50;;;22.89;36.44
14242;BME280;7205;50.864;12.766;2022-09-02T11:45:41;97880.63;;;22.96;36.54
14242;BME280;7205;50.864;12.766;2022-09-02T11:51:25;97882.16;;;23.08;36.93
14242;BME280;7205;50.864;12.766;2022-09-02T11:53:59;97880.50;;;23.24;37.16
14242;BME280;7205;50.864;12.766;2022-09-02T11:56:34;97881.78;;;23.38;37.17
14242;BME280;7205;50.864;12.766;2022-09-02T11:59:04;97876.81;;;23.51;36.61
14242;BME280;7205;50.864;12.766;2022-09-02T12:01:34;97878.66;;;23.68;36.50
14242;BME280;7205;50.864;12.766;2022-09-02T12:04:05;97866.06;;;23.78;35.71
14242;BME280;7205;50.864;12.766;2022-09-02T12:06:32;97873.47;;;23.88;35.62
14242;BME280;7205;50.864;12.766;2022-09-02T12:09:07;97868.41;;;23.91;35.18
14242;BME280;7205;50.864;12.766;2022-09-02T12:11:48;97867.38;;;23.97;36.09
14242;BME280;7205;50.864;12.766;2022-09-02T12:17:38;97864.31;;;24.15;34.54
14242;BME280;7205;50.864;12.766;2022-09-02T12:20:08;97866.75;;;24.17;34.46
14242;BME280;7205;50.864;12.766;2022-09-02T12:22:39;97865.19;;;24.21;34.54
14242;BME280;7205;50.864;12.766;2022-09-02T12:28:25;97857.75;;;24.33;35.25
14242;BME280;7205;50.864;12.766;2022-09-02T12:31:16;97853.72;;;24.35;34.33
14242;BME280;7205;50.864;12.766;2022-09-02T12:40:16;97836.81;;;24.18;34.22
14242;BME280;7205;50.864;12.766;2022-09-02T12:42:45;97840.03;;;24.15;34.48
14242;BME280;7205;50.864;12.766;2022-09-02T12:45:13;97832.66;;;24.06;33.80
14242;BME280;7205;50.864;12.766;2022-09-02T12:47:55;97831.16;;;23.93;34.12
14242;BME280;7205;50.864;12.766;2022-09-02T12:50:26;97834.31;;;23.85;34.20
14242;BME280;7205;50.864;12.766;2022-09-02T12:53:13;97836.13;;;23.80;34.29
14242;BME280;7205;50.864;12.766;2022-09-02T12:55:53;97822.66;;;23.80;34.02
14242;BME280;7205;50.864;12.766;2022-09-02T12:58:21;97834.22;;;23.75;33.74
14242;BME280;7205;50.864;12.766;2022-09-02T13:00:57;97837.63;;;23.66;33.88
14242;BME280;7205;50.864;12.766;2022-09-02T13:03:38;97835.69;;;23.61;34.59
14242;BME280;7205;50.864;12.766;2022-09-02T13:06:11;97824.41;;;23.64;34.87
14242;BME280;7205;50.864;12.766;2022-09-02T13:08:59;97822.31;;;23.71;34.49
14242;BME280;7205;50.864;12.766;2022-09-02T13:12:07;97820.00;;;23.85;34.95
14242;BME280;7205;50.864;12.766;2022-09-02T13:15:04;97817.31;;;24.06;35.10
14242;BME280;7205;50.864;12.766;2022-09-02T13:17:46;97809.66;;;24.30;33.81
14242;BME280;7205;50.864;12.766;2022-09-02T13:20:39;97807.59;;;24.42;32.93
14242;BME280;7205;50.864;12.766;2022-09-02T13:23:34;97814.63;;;24.43;33.08
14242;BME280;7205;50.864;12.766;2022-09-02T13:26:24;97804.63;;;24.43;32.96
14242;BME280;7205;50.864;12.766;2022-09-02T13:29:13;97804.16;;;24.51;32.65
14242;BME280;7205;50.864;12.766;2022-09-02T13:31:57;97804.69;;;24.53;32.31
14242;BME280;7205;50.864;12.766;2022-09-02T13:34:27;97809.31;;;24.53;32.67
14242;BME280;7205;50.864;12.766;2022-09-02T13:36:54;97792.81;;;24.49;32.71
14242;BME280;7205;50.864;12.766;2022-09-02T13:39:23;97796.03;;;24.46;32.97